createdAt,value
2019-03-19T05:55:49.416Z,168.00
2019-03-19T05:57:50.418Z,184.00
2019-03-19T05:58:49.374Z,196.00
2019-03-19T05:59:49.200Z,200.00
2019-03-19T06:01:49.330Z,220.00
2019-03-19T06:04:49.130Z,244.00
2019-03-19T06:05:49.288Z,252.00
2019-03-19T06:06:49.075Z,260.00
2019-03-19T06:10:49.225Z,292.00
2019-03-19T06:11:49.027Z,304.00
2019-03-19T06:14:49.019Z,320.00
2019-03-19T06:15:49.174Z,332.00
2019-03-19T06:18:48.951Z,352.00
2019-03-19T06:20:49.147Z,368.00
2019-03-19T06:22:49.127Z,380.00
2019-03-19T06:24:48.865Z,392.00
2019-03-19T06:25:48.863Z,400.00
2019-03-19T06:27:59.497Z,412.00
2019-03-19T06:34:10.487Z,448.00
2019-03-19T06:39:10.434Z,476.00
2019-03-19T06:40:10.415Z,484.00
2019-03-19T06:42:10.392Z,492.00
2019-03-19T06:46:10.352Z,508.00
2019-03-19T06:48:10.342Z,520.00
2019-03-19T06:49:32.798Z,524.00
2019-03-19T06:53:32.772Z,544.00
2019-03-19T06:54:32.748Z,548.00
2019-03-19T06:55:32.736Z,552.00
2019-03-19T06:56:32.718Z,556.00
2019-03-19T06:57:39.116Z,560.00
2019-03-19T06:58:54.330Z,564.00
2019-03-19T06:59:54.323Z,568.00
2019-03-19T07:00:54.349Z,568.00
2019-03-19T07:01:54.287Z,576.00
2019-03-19T07:02:54.273Z,576.00
2019-03-19T07:03:54.275Z,580.00
2019-03-19T07:04:54.355Z,584.00
2019-03-19T07:05:54.282Z,588.00
2019-03-19T07:06:54.364Z,592.00
2019-03-19T07:07:54.272Z,592.00
2019-03-19T07:08:54.245Z,596.00
2019-03-19T07:09:54.259Z,604.00
2019-03-19T07:10:54.229Z,608.00
2019-03-19T07:11:54.258Z,612.00
2019-03-19T07:12:54.203Z,612.00
2019-03-19T07:13:54.206Z,620.00
2019-03-19T07:14:54.150Z,620.00
2019-03-19T07:15:54.126Z,624.00
2019-03-19T07:16:54.163Z,628.00
2019-03-19T07:17:54.149Z,632.00
2019-03-19T07:18:54.126Z,636.00
2019-03-19T07:19:54.088Z,640.00
2019-03-19T07:20:54.086Z,644.00
2019-03-19T07:21:54.104Z,644.00
2019-03-19T07:22:54.077Z,648.00
2019-03-19T07:23:54.047Z,652.00
2019-03-19T07:24:54.039Z,660.00
2019-03-19T07:25:54.045Z,660.00
2019-03-19T07:26:54.092Z,664.00
2019-03-19T07:27:53.998Z,668.00
2019-03-19T07:28:54.036Z,672.00
2019-03-19T07:29:53.991Z,672.00
2019-03-19T07:30:53.985Z,676.00
2019-03-19T07:31:53.969Z,684.00
2019-03-19T07:32:53.947Z,688.00
2019-03-19T07:33:53.938Z,692.00
2019-03-19T07:34:54.103Z,696.00
2019-03-19T07:35:53.926Z,696.00
2019-03-19T07:36:53.990Z,696.00
2019-03-19T07:37:53.882Z,700.00
2019-03-19T07:38:53.910Z,700.00
2019-03-19T07:39:53.869Z,704.00
2019-03-19T07:40:53.855Z,708.00
2019-03-19T07:41:53.857Z,708.00
2019-03-19T07:42:53.837Z,712.00
2019-03-19T07:43:53.869Z,716.00
2019-03-19T07:44:53.831Z,720.00
2019-03-19T07:45:53.811Z,724.00
2019-03-19T07:46:53.791Z,724.00
2019-03-19T07:47:53.781Z,728.00
2019-03-19T07:48:53.774Z,728.00
2019-03-19T07:49:53.786Z,732.00
2019-03-19T07:50:53.756Z,736.00
2019-03-19T07:51:53.759Z,736.00
2019-03-19T07:52:53.736Z,736.00
2019-03-19T07:53:53.724Z,740.00
2019-03-19T07:54:53.726Z,740.00
2019-03-19T07:55:53.723Z,744.00
2019-03-19T07:56:53.711Z,748.00
2019-03-19T07:57:53.676Z,752.00
2019-03-19T07:58:53.664Z,752.00
2019-03-19T07:59:53.674Z,760.00
2019-03-19T08:00:53.645Z,756.00
2019-03-19T08:01:53.706Z,764.00
2019-03-19T08:02:53.628Z,764.00
2019-03-19T08:03:53.608Z,764.00
2019-03-19T08:04:53.598Z,768.00
2019-03-19T08:05:53.596Z,768.00
2019-03-19T08:06:53.586Z,768.00
2019-03-19T08:07:53.568Z,772.00
2019-03-19T08:08:53.557Z,772.00
2019-03-19T08:09:53.537Z,772.00
2019-03-19T08:10:53.536Z,776.00
2019-03-19T08:11:53.606Z,776.00
2019-03-19T08:12:53.510Z,776.00
2019-03-19T08:13:53.697Z,780.00
2019-03-19T08:14:53.509Z,780.00
2019-03-19T08:15:53.470Z,780.00
2019-03-19T08:16:53.467Z,780.00
2019-03-19T08:17:53.458Z,784.00
2019-03-19T08:18:53.452Z,784.00
2019-03-19T08:19:53.524Z,784.00
2019-03-19T08:20:53.409Z,788.00
2019-03-19T08:21:53.403Z,788.00
2019-03-19T08:22:53.419Z,780.00
2019-03-19T08:23:53.409Z,784.00
2019-03-19T08:24:53.374Z,788.00
2019-03-19T08:25:53.417Z,792.00
2019-03-19T08:26:53.345Z,792.00
2019-03-19T08:27:53.345Z,796.00
2019-03-19T08:28:55.583Z,796.00
2019-03-19T08:29:53.327Z,800.00
2019-03-19T08:30:53.332Z,800.00
2019-03-19T08:31:53.302Z,800.00
2019-03-19T08:32:53.283Z,804.00
2019-03-19T08:33:53.681Z,808.00
2019-03-19T08:34:53.265Z,808.00
2019-03-19T08:35:53.248Z,808.00
2019-03-19T08:36:53.263Z,804.00
2019-03-19T08:37:53.245Z,808.00
2019-03-19T08:38:53.228Z,808.00
2019-03-19T08:39:53.214Z,808.00
2019-03-19T08:40:53.205Z,808.00
2019-03-19T08:41:53.196Z,808.00
2019-03-19T08:42:53.175Z,808.00
2019-03-19T08:43:53.195Z,816.00
2019-03-19T08:44:53.156Z,816.00
2019-03-19T08:45:53.148Z,816.00
2019-03-19T08:46:53.139Z,820.00
2019-03-19T08:47:53.128Z,820.00
2019-03-19T08:48:53.311Z,820.00
2019-03-19T08:49:53.103Z,824.00
2019-03-19T08:50:53.164Z,824.00
2019-03-19T08:51:53.081Z,820.00
2019-03-19T08:52:55.261Z,824.00
2019-03-19T08:53:53.051Z,824.00
2019-03-19T08:54:53.066Z,828.00
2019-03-19T08:55:53.042Z,832.00
2019-03-19T08:56:53.062Z,832.00
2019-03-19T08:57:53.007Z,832.00
2019-03-19T08:58:53.039Z,836.00
2019-03-19T08:59:52.985Z,840.00
2019-03-19T09:00:53.017Z,844.00
2019-03-19T09:01:53.196Z,840.00
2019-03-19T09:02:52.981Z,844.00
2019-03-19T09:03:53.075Z,848.00
2019-03-19T09:04:52.935Z,848.00
2019-03-19T09:05:52.935Z,848.00
2019-03-19T09:06:52.919Z,852.00
2019-03-19T09:07:52.909Z,852.00
2019-03-19T09:08:52.901Z,852.00
2019-03-19T09:09:52.997Z,860.00
2019-03-19T09:10:52.870Z,860.00
2019-03-19T09:11:52.851Z,864.00
2019-03-19T09:12:52.851Z,860.00
2019-03-19T09:13:52.830Z,864.00
2019-03-19T09:14:52.869Z,868.00
2019-03-19T09:31:27.333Z,924.00
2019-03-19T09:32:27.335Z,960.00
2019-03-19T09:33:27.337Z,1044.00
2019-03-19T09:34:27.298Z,1104.00
2019-03-19T09:35:27.287Z,1124.00
2019-03-19T09:36:27.305Z,1124.00
2019-03-19T09:37:27.273Z,1176.00
2019-03-19T09:38:27.254Z,1236.00
2019-03-19T09:39:27.253Z,1460.00
2019-03-19T09:40:27.227Z,1308.00
2019-03-19T09:41:27.233Z,1280.00
2019-03-19T09:42:27.211Z,1268.00
2019-03-19T09:43:27.193Z,1304.00
2019-03-19T09:44:27.193Z,1228.00
2019-03-19T09:45:27.178Z,1296.00
2019-03-19T09:46:27.163Z,1308.00
2019-03-19T09:47:27.170Z,1320.00
2019-03-19T09:48:28.287Z,1156.00
2019-03-19T09:49:27.137Z,1280.00
2019-03-19T09:50:27.126Z,1236.00
2019-03-19T09:51:27.122Z,1236.00
2019-03-19T09:52:27.212Z,1236.00
2019-03-19T09:53:27.091Z,1228.00
2019-03-19T09:54:27.079Z,1280.00
2019-03-19T09:55:27.063Z,1268.00
2019-03-19T09:56:27.134Z,1244.00
2019-03-19T09:57:27.261Z,1196.00
2019-03-19T09:58:27.020Z,1152.00
2019-03-19T09:59:27.522Z,1120.00
2019-03-19T10:00:27.012Z,1076.00
2019-03-19T10:01:26.991Z,1060.00
2019-03-19T10:02:26.991Z,1048.00
2019-03-19T10:03:27.291Z,1040.00
2019-03-19T10:04:27.040Z,1044.00
2019-03-19T10:05:26.964Z,1040.00
2019-03-19T10:06:26.964Z,1036.00
2019-03-19T10:07:26.983Z,1032.00
2019-03-19T10:08:26.927Z,1032.00
2019-03-19T10:09:27.112Z,1028.00
2019-03-19T10:10:26.937Z,1028.00
2019-03-19T10:11:26.892Z,1032.00
2019-03-19T10:12:26.903Z,1036.00
2019-03-19T10:13:26.864Z,1036.00
2019-03-19T10:14:26.870Z,1040.00
2019-03-19T10:15:27.080Z,1044.00
2019-03-19T10:16:26.837Z,1052.00
2019-03-19T10:17:26.914Z,1068.00
2019-03-19T10:18:26.851Z,1072.00
2019-03-19T10:19:26.803Z,1080.00
2019-03-19T10:20:26.799Z,1104.00
2019-03-19T10:21:26.775Z,1120.00
2019-03-19T10:22:26.758Z,1172.00
2019-03-19T10:23:26.751Z,1240.00
2019-03-19T10:24:26.749Z,1272.00
2019-03-19T10:25:26.727Z,1312.00
2019-03-19T10:26:26.715Z,1328.00
2019-03-19T10:27:26.694Z,1336.00
2019-03-19T10:28:26.691Z,1312.00
2019-03-19T10:29:37.640Z,1264.00
2019-03-19T10:30:48.458Z,1200.00
2019-03-19T10:31:48.438Z,1160.00
2019-03-19T10:32:48.420Z,1244.00
2019-03-19T10:33:48.405Z,1272.00
2019-03-19T10:34:48.403Z,1116.00
2019-03-19T10:35:48.413Z,1256.00
2019-03-19T10:36:48.380Z,1284.00
2019-03-19T10:37:48.381Z,1140.00
2019-03-19T10:38:48.369Z,1120.00
2019-03-19T10:39:48.340Z,1216.00
2019-03-19T10:40:48.325Z,1176.00
2019-03-19T10:41:48.336Z,1144.00
2019-03-19T10:42:48.304Z,1152.00
2019-03-19T10:43:48.303Z,1120.00
2019-03-19T10:44:48.325Z,1084.00
2019-03-19T10:45:48.281Z,1068.00
2019-03-19T10:46:48.462Z,1064.00
2019-03-19T10:47:48.276Z,1064.00
2019-03-19T10:48:48.246Z,1060.00
2019-03-19T10:49:49.229Z,1056.00
2019-03-19T10:50:48.217Z,1068.00
2019-03-19T10:51:48.208Z,1084.00
2019-03-19T10:52:48.199Z,1096.00
2019-03-19T10:53:48.183Z,1080.00
2019-03-19T10:54:48.256Z,1080.00
2019-03-19T10:55:48.163Z,1080.00
2019-03-19T10:56:48.183Z,1076.00
2019-03-19T10:57:48.164Z,1080.00
2019-03-19T10:58:48.135Z,1068.00
2019-03-19T10:59:49.422Z,1068.00
2019-03-19T11:00:48.108Z,1084.00
2019-03-19T11:01:48.132Z,1108.00
2019-03-19T11:02:48.087Z,1120.00
2019-03-19T11:03:48.061Z,1112.00
2019-03-19T11:04:48.066Z,1104.00
2019-03-19T11:05:48.136Z,1084.00
2019-03-19T11:06:48.035Z,1056.00
2019-03-19T11:07:48.119Z,1044.00
2019-03-19T11:08:48.036Z,1052.00
2019-03-19T11:09:48.011Z,1068.00
2019-03-19T11:10:47.987Z,1072.00
2019-03-19T11:11:47.978Z,1060.00
2019-03-19T11:12:47.977Z,1056.00
2019-03-19T11:13:47.958Z,1052.00
2019-03-19T11:14:47.940Z,1044.00
2019-03-19T11:15:47.934Z,1044.00
2019-03-19T11:16:47.915Z,1036.00
2019-03-19T11:17:47.940Z,1036.00
2019-03-19T11:18:47.925Z,1036.00
2019-03-19T11:19:47.885Z,1036.00
2019-03-19T11:20:47.880Z,1036.00
2019-03-19T11:21:47.864Z,1044.00
2019-03-19T11:22:47.938Z,1048.00
2019-03-19T11:23:47.848Z,1056.00
2019-03-19T11:24:47.883Z,1056.00
2019-03-19T11:25:54.481Z,1052.00
2019-03-19T11:27:09.603Z,1048.00
2019-03-19T11:28:09.559Z,1048.00
2019-03-19T11:29:09.574Z,1048.00
2019-03-19T11:30:09.549Z,1060.00
2019-03-19T11:31:09.583Z,1060.00
2019-03-19T11:32:09.539Z,1048.00
2019-03-19T11:33:09.521Z,1036.00
2019-03-19T11:34:09.521Z,1036.00
2019-03-19T11:35:09.526Z,1036.00
2019-03-19T11:36:09.557Z,1040.00
2019-03-19T11:37:09.505Z,1040.00
2019-03-19T11:38:09.453Z,1028.00
2019-03-19T11:39:09.471Z,1020.00
2019-03-19T11:40:09.451Z,1012.00
2019-03-19T11:41:09.430Z,1008.00
2019-03-19T11:42:09.420Z,996.00
2019-03-19T11:43:09.410Z,996.00
2019-03-19T11:44:09.391Z,996.00
2019-03-19T11:45:09.408Z,992.00
2019-03-19T11:46:09.543Z,992.00
2019-03-19T11:47:09.367Z,988.00
2019-03-19T11:48:09.391Z,984.00
2019-03-19T11:49:09.354Z,984.00
2019-03-19T11:50:09.332Z,984.00
2019-03-19T11:51:09.337Z,984.00
2019-03-19T11:52:09.295Z,984.00
2019-03-19T11:53:09.289Z,984.00
2019-03-19T11:54:09.274Z,980.00
2019-03-19T11:55:09.263Z,980.00
2019-03-19T11:56:09.259Z,976.00
2019-03-19T11:57:09.264Z,980.00
2019-03-19T11:58:09.252Z,980.00
2019-03-19T11:59:09.230Z,976.00
2019-03-19T12:00:11.489Z,976.00
2019-03-19T12:01:09.274Z,976.00
2019-03-19T12:02:09.195Z,976.00
2019-03-19T12:03:15.240Z,976.00
2019-03-19T12:04:31.548Z,964.00
2019-03-19T12:05:31.495Z,952.00
2019-03-19T12:06:31.482Z,968.00
2019-03-19T12:07:31.447Z,976.00
2019-03-19T12:08:31.485Z,976.00
2019-03-19T12:09:31.454Z,956.00
2019-03-19T12:10:31.446Z,828.00
2019-03-19T12:11:31.405Z,964.00
2019-03-19T12:12:31.423Z,956.00
2019-03-19T12:13:31.395Z,960.00
2019-03-19T12:14:31.370Z,960.00
2019-03-19T12:15:31.369Z,960.00
2019-03-19T12:16:31.521Z,956.00
2019-03-19T12:17:31.350Z,952.00
2019-03-19T12:18:31.330Z,952.00
2019-03-19T12:19:31.330Z,952.00
2019-03-19T12:20:31.340Z,952.00
2019-03-19T12:21:31.327Z,952.00
2019-03-19T12:22:31.325Z,952.00
2019-03-19T12:23:31.283Z,952.00
2019-03-19T12:24:32.807Z,948.00
2019-03-19T12:25:31.603Z,948.00
2019-03-19T12:26:31.236Z,956.00
2019-03-19T12:27:31.243Z,952.00
2019-03-19T12:28:39.333Z,952.00
2019-03-19T12:29:53.527Z,956.00
2019-03-19T12:30:54.912Z,948.00
2019-03-19T12:31:53.520Z,948.00
2019-03-19T12:32:53.525Z,944.00
2019-03-19T12:33:53.498Z,940.00
2019-03-19T12:34:53.472Z,944.00
2019-03-19T12:35:53.483Z,940.00
2019-03-19T12:36:53.452Z,940.00
2019-03-19T12:37:53.439Z,940.00
2019-03-19T12:38:53.447Z,940.00
2019-03-19T12:39:53.412Z,936.00
2019-03-19T12:40:53.426Z,936.00
2019-03-19T12:41:53.622Z,936.00
2019-03-19T12:42:53.387Z,932.00
2019-03-19T12:43:53.396Z,932.00
2019-03-19T12:44:53.361Z,928.00
2019-03-19T12:45:53.358Z,928.00
2019-03-19T12:46:53.354Z,928.00
2019-03-19T12:47:53.323Z,924.00
2019-03-19T12:48:54.420Z,924.00
2019-03-19T12:49:53.321Z,920.00
2019-03-19T12:50:53.337Z,924.00
2019-03-19T12:51:53.300Z,924.00
2019-03-19T12:52:53.285Z,920.00
2019-03-19T12:53:53.320Z,920.00
2019-03-19T12:54:53.431Z,916.00
2019-03-19T12:55:53.284Z,916.00
2019-03-19T12:56:53.236Z,912.00
2019-03-19T12:57:53.214Z,916.00
2019-03-19T12:58:53.205Z,916.00
2019-03-19T12:59:53.217Z,916.00
2019-03-19T13:00:53.178Z,912.00
2019-03-19T13:01:53.288Z,912.00
2019-03-19T13:02:53.155Z,904.00
2019-03-19T13:03:53.158Z,904.00
2019-03-19T13:04:53.134Z,904.00
2019-03-19T13:05:53.137Z,904.00
2019-03-19T13:06:53.189Z,904.00
2019-03-19T13:07:53.099Z,900.00
2019-03-19T13:08:53.109Z,900.00
2019-03-19T13:09:53.169Z,900.00
2019-03-19T13:10:53.075Z,904.00
2019-03-19T13:11:53.186Z,904.00
2019-03-19T13:12:53.061Z,900.00
2019-03-19T13:13:53.030Z,900.00
2019-03-19T13:14:53.025Z,900.00
2019-03-19T13:15:53.017Z,900.00
2019-03-19T13:16:52.997Z,904.00
2019-03-19T13:17:53.015Z,896.00
2019-03-19T13:18:52.998Z,900.00
2019-03-19T13:19:52.987Z,896.00
2019-03-19T13:20:53.642Z,896.00
2019-03-19T13:21:52.939Z,840.00
2019-03-19T13:22:52.949Z,740.00
2019-03-19T13:23:52.919Z,716.00
2019-03-19T13:24:52.950Z,772.00
2019-03-19T13:25:52.904Z,888.00
2019-03-19T13:26:52.892Z,784.00
2019-03-19T13:27:52.914Z,780.00
2019-03-19T13:28:52.879Z,720.00
2019-03-19T13:29:52.933Z,876.00
2019-03-19T13:30:52.908Z,876.00
2019-03-19T13:31:52.830Z,876.00
2019-03-19T13:32:52.851Z,872.00
2019-03-19T13:33:52.810Z,864.00
2019-03-19T13:34:52.822Z,876.00
2019-03-19T13:35:52.799Z,876.00
2019-03-19T13:36:52.822Z,872.00
2019-03-19T13:37:52.774Z,872.00
2019-03-19T13:38:52.772Z,872.00
2019-03-19T13:39:52.736Z,872.00
2019-03-19T13:40:52.722Z,884.00
2019-03-19T13:41:52.736Z,892.00
2019-03-19T13:42:52.724Z,884.00
2019-03-19T13:43:52.714Z,872.00
2019-03-19T13:44:52.696Z,864.00
2019-03-19T13:45:52.672Z,864.00
2019-03-19T13:46:52.680Z,864.00
2019-03-19T13:47:52.673Z,856.00
2019-03-19T13:48:52.642Z,852.00
2019-03-19T13:50:37.988Z,852.00
2019-03-19T13:51:14.608Z,860.00
2019-03-19T13:52:14.585Z,848.00
2019-03-19T13:53:14.591Z,844.00
2019-03-19T13:54:16.665Z,844.00
2019-03-19T13:55:15.581Z,844.00
2019-03-19T13:56:15.213Z,848.00
2019-03-19T13:57:18.555Z,852.00
2019-03-19T13:58:14.736Z,852.00
2019-03-19T13:59:14.516Z,844.00
2019-03-19T14:00:14.493Z,840.00
2019-03-19T14:01:14.490Z,788.00
2019-03-19T14:02:14.471Z,716.00
2019-03-19T14:03:14.460Z,852.00
2019-03-19T14:04:14.469Z,856.00
2019-03-19T14:05:14.456Z,848.00
2019-03-19T14:06:14.429Z,844.00
2019-03-19T14:07:14.415Z,848.00
2019-03-19T14:08:14.409Z,860.00
2019-03-19T14:09:14.405Z,876.00
2019-03-19T14:10:14.382Z,884.00
2019-03-19T14:11:14.387Z,896.00
2019-03-19T14:12:14.392Z,904.00
2019-03-19T14:13:14.484Z,908.00
2019-03-19T14:14:14.367Z,912.00
2019-03-19T14:15:14.402Z,888.00
2019-03-19T14:16:15.315Z,872.00
2019-03-19T14:17:14.352Z,836.00
2019-03-19T14:18:14.291Z,816.00
2019-03-19T14:19:14.295Z,812.00
2019-03-19T14:20:14.283Z,808.00
2019-03-19T14:21:14.269Z,808.00
2019-03-19T14:22:14.249Z,808.00
2019-03-19T14:23:14.238Z,808.00
2019-03-19T14:24:14.225Z,808.00
2019-03-19T14:25:14.234Z,812.00
2019-03-19T14:26:14.212Z,816.00
2019-03-19T14:27:14.398Z,816.00
2019-03-19T14:28:14.179Z,816.00
2019-03-19T14:29:14.203Z,816.00
2019-03-19T14:30:14.151Z,804.00
2019-03-19T14:31:14.185Z,804.00
2019-03-19T14:32:14.256Z,808.00
2019-03-19T14:33:14.118Z,808.00
2019-03-19T14:34:14.133Z,804.00
2019-03-19T14:35:14.115Z,808.00
2019-03-19T14:36:15.095Z,808.00
2019-03-19T14:37:14.085Z,808.00
2019-03-19T14:38:14.089Z,808.00
2019-03-19T14:39:14.058Z,804.00
2019-03-19T14:40:14.041Z,808.00
2019-03-19T14:41:14.090Z,808.00
2019-03-19T14:42:14.042Z,808.00
2019-03-19T14:43:14.015Z,804.00
2019-03-19T14:44:14.000Z,804.00
2019-03-19T14:45:13.995Z,800.00
2019-03-19T14:46:14.016Z,804.00
2019-03-19T14:47:13.962Z,804.00
2019-03-19T14:48:13.959Z,808.00
2019-03-19T14:49:13.987Z,808.00
2019-03-19T14:50:13.952Z,808.00
2019-03-19T14:51:13.951Z,820.00
2019-03-19T14:52:13.933Z,836.00
2019-03-19T14:53:13.900Z,836.00
2019-03-19T14:54:13.907Z,828.00
2019-03-19T14:55:13.871Z,816.00
2019-03-19T14:56:13.873Z,820.00
2019-03-19T14:57:13.898Z,836.00
2019-03-19T14:58:13.870Z,824.00
2019-03-19T14:59:13.847Z,828.00
2019-03-19T15:14:40.554Z,752.00
2019-03-19T15:15:40.529Z,744.00
2019-03-19T15:16:40.540Z,740.00
2019-03-19T15:17:40.561Z,732.00
2019-03-19T15:18:40.496Z,688.00
2019-03-19T15:19:40.477Z,656.00
2019-03-19T15:20:40.484Z,656.00
2019-03-19T15:21:40.476Z,708.00
2019-03-19T15:22:40.473Z,704.00
2019-03-19T15:23:40.460Z,632.00
2019-03-19T15:24:40.468Z,628.00
2019-03-19T15:25:40.417Z,628.00
2019-03-19T15:26:40.409Z,668.00
2019-03-19T15:27:40.395Z,680.00
2019-03-19T15:28:40.419Z,652.00
2019-03-19T15:29:40.375Z,640.00
2019-03-19T15:30:40.431Z,600.00
2019-03-19T15:31:40.361Z,608.00
2019-03-19T15:32:40.357Z,656.00
2019-03-19T15:33:40.338Z,668.00
2019-03-19T15:34:40.404Z,680.00
2019-03-19T15:35:40.310Z,688.00
2019-03-19T15:36:40.311Z,692.00
2019-03-19T15:37:40.291Z,692.00
2019-03-19T15:38:40.276Z,692.00
2019-03-19T15:39:40.265Z,684.00
2019-03-19T15:40:40.258Z,684.00
2019-03-19T15:41:40.257Z,692.00
2019-03-19T15:42:40.268Z,696.00
2019-03-19T15:43:40.259Z,692.00
2019-03-19T15:44:40.239Z,680.00
2019-03-19T15:45:40.201Z,676.00
2019-03-19T15:46:40.187Z,660.00
2019-03-19T15:47:40.198Z,664.00
2019-03-19T15:48:40.186Z,664.00
2019-03-19T15:49:40.157Z,656.00
2019-03-19T15:50:40.140Z,616.00
2019-03-19T15:51:40.125Z,624.00
2019-03-19T15:52:40.118Z,624.00
2019-03-19T15:53:40.107Z,624.00
2019-03-19T15:54:40.139Z,612.00
2019-03-19T15:55:40.080Z,612.00
2019-03-19T15:56:40.075Z,636.00
2019-03-19T15:57:40.269Z,596.00
2019-03-19T15:58:40.094Z,588.00
2019-03-19T15:59:40.072Z,592.00
2019-03-19T16:00:40.054Z,604.00
2019-03-19T16:01:40.752Z,620.00
2019-03-19T16:02:40.012Z,588.00
2019-03-19T16:03:40.052Z,564.00
2019-03-19T16:04:40.006Z,568.00
2019-03-19T16:05:39.978Z,564.00
2019-03-19T16:06:39.983Z,572.00
2019-03-19T16:07:39.957Z,568.00
2019-03-19T16:08:39.990Z,560.00
2019-03-19T16:09:39.933Z,560.00
2019-03-19T16:10:39.916Z,560.00
2019-03-19T16:11:39.913Z,564.00
2019-03-19T16:12:39.897Z,564.00
2019-03-19T16:13:39.884Z,568.00
2019-03-19T16:14:39.882Z,576.00
2019-03-19T16:15:39.870Z,572.00
2019-03-19T16:16:39.913Z,564.00
2019-03-19T16:17:39.846Z,560.00
2019-03-19T16:18:39.838Z,544.00
2019-03-19T16:19:39.832Z,536.00
2019-03-19T16:20:39.852Z,528.00
2019-03-19T16:21:39.802Z,552.00
2019-03-19T16:22:39.777Z,576.00
2019-03-19T16:23:39.762Z,604.00
2019-03-19T16:24:39.770Z,628.00
2019-03-19T16:25:39.758Z,632.00
2019-03-19T16:26:39.741Z,656.00
2019-03-19T16:27:39.746Z,676.00
2019-03-19T16:28:39.715Z,676.00
2019-03-19T16:29:39.706Z,664.00
2019-03-19T16:30:39.753Z,640.00
2019-03-19T16:31:39.690Z,624.00
2019-03-19T16:32:39.704Z,592.00
2019-03-19T16:33:39.773Z,580.00
2019-03-19T16:34:39.663Z,568.00
2019-03-19T16:35:39.662Z,556.00
2019-03-19T16:36:39.702Z,540.00
2019-03-19T16:37:39.618Z,528.00
2019-03-19T16:38:39.608Z,512.00
2019-03-19T16:39:39.595Z,492.00
2019-03-19T16:40:39.602Z,472.00
2019-03-19T16:41:39.617Z,448.00
2019-03-19T16:42:39.584Z,424.00
2019-03-19T16:43:39.569Z,408.00
2019-03-19T16:44:39.537Z,396.00
2019-03-19T16:45:39.529Z,388.00
2019-03-19T16:46:39.521Z,384.00
2019-03-19T16:47:39.533Z,376.00
2019-03-19T16:48:39.501Z,372.00
2019-03-19T16:49:39.484Z,376.00
2019-03-19T16:50:39.484Z,380.00
2019-03-19T16:51:39.468Z,384.00
2019-03-19T16:52:39.455Z,392.00
2019-03-19T16:53:39.461Z,400.00
2019-03-19T16:54:39.434Z,404.00
2019-03-19T16:55:39.417Z,408.00
2019-03-19T16:56:39.412Z,420.00
2019-03-19T16:57:39.414Z,424.00
2019-03-19T16:58:39.399Z,420.00
2019-03-19T16:59:39.368Z,416.00
2019-03-19T17:00:39.368Z,404.00
2019-03-19T17:01:39.372Z,384.00
2019-03-19T17:02:39.344Z,368.00
2019-03-19T17:03:39.328Z,348.00
2019-03-19T17:04:39.331Z,328.00
2019-03-19T17:05:39.308Z,316.00
2019-03-19T17:06:39.315Z,300.00
2019-03-19T17:07:39.319Z,292.00
2019-03-19T17:08:39.302Z,280.00
2019-03-19T17:09:39.294Z,268.00
2019-03-19T17:10:39.261Z,256.00
2019-03-19T17:11:39.253Z,244.00
2019-03-19T17:12:39.223Z,236.00
2019-03-19T17:13:39.236Z,232.00
2019-03-19T17:14:39.204Z,220.00
2019-03-19T17:15:39.282Z,212.00
2019-03-19T17:16:39.275Z,208.00
2019-03-19T17:17:39.212Z,196.00
2019-03-19T17:19:39.180Z,172.00
2019-03-19T17:20:39.143Z,164.00
2019-03-19T17:21:39.154Z,156.00
2019-03-19T17:22:39.124Z,148.00
2019-03-19T17:23:39.109Z,140.00
2019-03-19T17:24:39.100Z,136.00
2019-03-19T17:25:39.166Z,128.00
2019-03-19T17:26:39.070Z,120.00
